Time;durP1;ratioP1;P1;durP2;ratioP2;P2;SDS_P1;SDS_P2;PMS_P1;PMS_P2;Temp;Humidity;BMP_temperature;BMP_pressure;BME280_temperature;BME280_humidity;BME280_pressure;Samples;Min_cycle;Max_cycle;Signal;HPM_P1;HPM_P2
2021/01/03 00:02:05;;;;;;;17.33;11.50;;;2.30;98.80;;;;;;5051155;28;20041;-53
2021/01/03 00:04:31;;;;;;;20.17;12.23;;;2.30;98.80;;;;;;5070000;28;20032;-53
2021/01/03 00:06:57;;;;;;;21.83;11.70;;;2.30;98.90;;;;;;5071391;28;20133;-53
2021/01/03 00:09:24;;;;;;;18.70;11.15;;;2.30;98.80;;;;;;5066508;28;20035;-49
2021/01/03 00:11:50;;;;;;;15.25;10.57;;;2.30;98.90;;;;;;5071271;28;20085;-49
2021/01/03 00:14:17;;;;;;;17.00;10.65;;;2.40;98.80;;;;;;5052092;28;20315;-51
2021/01/03 00:16:47;;;;;;;17.13;10.23;;;2.40;98.70;;;;;;5051146;28;20028;-50
2021/01/03 00:19:13;;;;;;;16.95;10.77;;;2.40;98.50;;;;;;5066666;28;20506;-53
2021/01/03 00:21:39;;;;;;;20.77;9.80;;;2.40;98.70;;;;;;5071089;28;20029;-51
2021/01/03 00:24:05;;;;;;;19.30;10.50;;;2.30;98.70;;;;;;5054532;28;20029;-49
2021/01/03 00:26:31;;;;;;;16.48;11.43;;;2.30;98.90;;;;;;5051408;28;20108;-49
2021/01/03 00:28:56;;;;;;;13.70;10.68;;;2.40;98.90;;;;;;5064973;28;20111;-59
2021/01/03 00:31:25;;;;;;;15.25;11.32;;;2.40;98.90;;;;;;5062054;28;20111;-57
2021/01/03 00:33:51;;;;;;;18.33;10.80;;;2.30;98.80;;;;;;5051257;28;20029;-54
2021/01/03 00:36:18;;;;;;;14.43;10.57;;;2.30;98.90;;;;;;5052978;28;20096;-56
2021/01/03 00:38:43;;;;;;;14.27;10.02;;;2.30;99.10;;;;;;5051680;28;20025;-53
2021/01/03 00:41:09;;;;;;;15.27;9.65;;;2.20;99.00;;;;;;5051751;28;20502;-53
2021/01/03 00:43:35;;;;;;;14.70;9.65;;;2.20;99.00;;;;;;5050272;28;20037;-54
2021/01/03 00:46:00;;;;;;;13.98;10.05;;;2.20;99.00;;;;;;5057009;28;20077;-52
2021/01/03 00:48:26;;;;;;;14.10;8.93;;;2.20;98.90;;;;;;5070105;28;20493;-50
2021/01/03 00:50:51;;;;;;;13.18;9.48;;;2.20;99.00;;;;;;5065434;28;20180;-52
2021/01/03 00:53:17;;;;;;;14.23;9.40;;;2.20;98.90;;;;;;5050172;28;20510;-52
2021/01/03 00:55:42;;;;;;;16.85;10.35;;;2.30;99.10;;;;;;5051439;28;20352;-50
2021/01/03 00:58:08;;;;;;;14.50;10.05;;;2.20;99.10;;;;;;5070142;28;20505;-51
2021/01/03 01:00:34;;;;;;;14.20;8.65;;;2.30;99.10;;;;;;5064887;28;20032;-52
2021/01/03 01:03:01;;;;;;;15.85;10.13;;;2.30;99.10;;;;;;5069473;28;20097;-55
2021/01/03 01:05:27;;;;;;;16.42;10.02;;;2.30;98.90;;;;;;5054036;28;20067;-54
2021/01/03 01:07:53;;;;;;;16.63;10.38;;;2.20;99.00;;;;;;5049608;28;20028;-52
2021/01/03 01:10:23;;;;;;;17.50;9.98;;;2.20;99.10;;;;;;5051115;28;20032;-51
2021/01/03 01:12:54;;;;;;;14.82;9.18;;;2.20;99.20;;;;;;5049870;28;20032;-54
2021/01/03 01:15:21;;;;;;;11.75;8.95;;;2.20;99.00;;;;;;5068166;28;20584;-53
2021/01/03 01:17:56;;;;;;;13.55;9.73;;;2.20;99.00;;;;;;5069741;28;20040;-52
2021/01/03 01:20:25;;;;;;;11.13;8.65;;;2.20;99.00;;;;;;5068000;28;20020;-55
2021/01/03 01:22:50;;;;;;;12.95;8.77;;;2.20;99.20;;;;;;5069874;28;20025;-49
2021/01/03 01:25:19;;;;;;;16.13;9.45;;;2.20;99.00;;;;;;5053507;28;20104;-49
2021/01/03 01:27:44;;;;;;;10.88;8.57;;;2.20;99.10;;;;;;5049780;28;20029;-49
2021/01/03 01:30:11;;;;;;;13.68;9.18;;;2.20;98.90;;;;;;5050979;28;20086;-51
2021/01/03 01:32:38;;;;;;;14.23;9.25;;;2.20;99.00;;;;;;5048196;28;20120;-50
2021/01/03 01:35:05;;;;;;;12.98;9.63;;;2.20;98.90;;;;;;5063248;28;20025;-49
2021/01/03 01:37:31;;;;;;;16.35;9.15;;;2.20;99.00;;;;;;5069656;28;20107;-51
2021/01/03 01:39:56;;;;;;;14.27;8.35;;;2.30;98.90;;;;;;5057798;28;20104;-52
2021/01/03 01:42:22;;;;;;;13.82;9.75;;;2.30;98.70;;;;;;5049067;28;20082;-51
2021/01/03 01:44:47;;;;;;;11.77;8.90;;;2.40;98.70;;;;;;5050124;28;20069;-51
2021/01/03 01:47:21;;;;;;;13.35;9.50;;;2.40;98.50;;;;;;5054544;28;20036;-52
2021/01/03 01:49:47;;;;;;;11.75;8.48;;;2.30;98.60;;;;;;5069368;28;20511;-53
2021/01/03 01:52:17;;;;;;;13.23;8.13;;;2.30;98.80;;;;;;5065098;28;20056;-53
2021/01/03 01:54:49;;;;;;;10.75;8.52;;;2.30;98.80;;;;;;5048819;28;20064;-50
2021/01/03 01:57:26;;;;;;;9.77;7.43;;;2.30;98.70;;;;;;5052576;28;20573;-54
2021/01/03 02:00:03;;;;;;;10.52;8.20;;;2.30;98.60;;;;;;5064431;28;20534;-53
2021/01/03 02:02:56;;;;;;;12.25;7.75;;;2.30;98.80;;;;;;5048681;28;20111;-50
2021/01/03 02:05:28;;;;;;;12.70;8.57;;;2.30;98.70;;;;;;5050460;28;20041;-53
2021/01/03 02:08:37;;;;;;;9.13;6.82;;;2.30;98.80;;;;;;5050620;28;20097;-49
2021/01/03 02:11:06;;;;;;;12.02;8.63;;;2.30;98.80;;;;;;5044597;28;20075;-52
2021/01/03 02:13:39;;;;;;;12.73;7.88;;;2.40;98.80;;;;;;5051813;28;20056;-51
2021/01/03 02:16:11;;;;;;;10.63;7.25;;;2.40;98.70;;;;;;5051910;28;20082;-50
2021/01/03 02:18:37;;;;;;;12.98;8.48;;;2.50;98.40;;;;;;5052188;28;20017;-52
2021/01/03 02:21:17;;;;;;;8.85;7.22;;;2.40;98.30;;;;;;5051391;28;20040;-50
2021/01/03 02:23:55;;;;;;;10.35;7.53;;;2.50;98.30;;;;;;5052236;28;20033;-49
2021/01/03 02:26:23;;;;;;;9.38;6.88;;;2.50;98.20;;;;;;5052017;28;20025;-51
2021/01/03 02:28:50;;;;;;;9.75;7.15;;;2.50;98.10;;;;;;5051536;28;20091;-50
2021/01/03 02:31:22;;;;;;;9.30;7.32;;;2.50;98.00;;;;;;5051441;28;20052;-49
2021/01/03 02:33:50;;;;;;;8.95;7.53;;;2.50;98.20;;;;;;5050860;28;20036;-48
2021/01/03 02:36:25;;;;;;;9.93;7.95;;;2.50;98.10;;;;;;5051112;28;20036;-52
2021/01/03 02:39:04;;;;;;;11.93;8.05;;;2.50;98.10;;;;;;5051190;28;20088;-50
2021/01/03 02:41:30;;;;;;;8.68;7.22;;;2.50;98.00;;;;;;5051096;28;20056;-51
2021/01/03 02:43:56;;;;;;;9.65;7.70;;;2.60;97.80;;;;;;5051030;28;20049;-48
2021/01/03 02:46:22;;;;;;;8.38;7.18;;;2.50;97.90;;;;;;5050918;28;20032;-49
2021/01/03 02:48:47;;;;;;;10.20;8.02;;;2.50;98.00;;;;;;5051053;28;20025;-52
2021/01/03 02:51:13;;;;;;;9.93;7.85;;;2.50;98.00;;;;;;5050951;28;20085;-50
2021/01/03 02:53:38;;;;;;;9.45;7.45;;;2.50;98.00;;;;;;5050596;28;20151;-54
2021/01/03 02:56:04;;;;;;;11.48;7.30;;;2.50;98.00;;;;;;5050821;28;20449;-54
2021/01/03 02:58:30;;;;;;;11.13;8.13;;;2.60;97.80;;;;;;5050845;28;20031;-49
2021/01/03 03:00:55;;;;;;;8.52;7.22;;;2.60;97.90;;;;;;5050798;28;20029;-53
2021/01/03 03:03:21;;;;;;;12.60;7.82;;;2.50;97.70;;;;;;5050480;28;20071;-47
2021/01/03 03:05:46;;;;;;;9.57;7.30;;;2.60;97.90;;;;;;5050561;28;20116;-52
2021/01/03 03:08:12;;;;;;;10.13;8.00;;;2.60;97.90;;;;;;5050774;28;20438;-48
2021/01/03 03:10:37;;;;;;;9.15;6.53;;;2.50;98.00;;;;;;5050306;28;20487;-47
2021/01/03 03:13:03;;;;;;;10.55;7.53;;;2.50;98.00;;;;;;5050198;28;20078;-48
2021/01/03 03:15:32;;;;;;;9.57;6.97;;;2.60;97.90;;;;;;5050507;28;20075;-48
2021/01/03 03:17:58;;;;;;;10.35;6.80;;;2.50;98.00;;;;;;5049244;28;20025;-47
2021/01/03 03:20:24;;;;;;;8.57;7.05;;;2.50;98.10;;;;;;5050450;28;20029;-47
2021/01/03 03:22:50;;;;;;;8.23;6.97;;;2.50;98.10;;;;;;5050357;28;20098;-48
2021/01/03 03:25:16;;;;;;;9.60;7.35;;;2.60;98.00;;;;;;5050567;28;20021;-47
2021/01/03 03:27:42;;;;;;;8.18;6.65;;;2.60;97.90;;;;;;5050393;28;20024;-50
2021/01/03 03:30:10;;;;;;;9.73;7.05;;;2.60;97.90;;;;;;5050520;28;20507;-47
2021/01/03 03:32:36;;;;;;;10.10;8.20;;;2.70;97.80;;;;;;5050106;28;20484;-54
2021/01/03 03:35:04;;;;;;;13.40;8.48;;;2.70;97.70;;;;;;5050342;28;20025;-47
2021/01/03 03:37:29;;;;;;;11.10;7.80;;;2.70;97.60;;;;;;5050096;28;20402;-48
2021/01/03 03:39:55;;;;;;;9.65;7.90;;;2.80;97.40;;;;;;5050366;28;20112;-48
2021/01/03 03:42:20;;;;;;;10.43;7.88;;;2.80;97.50;;;;;;5050394;28;20028;-49
2021/01/03 03:44:46;;;;;;;11.85;8.40;;;2.60;98.10;;;;;;5050104;28;20025;-50
2021/01/03 03:47:11;;;;;;;11.82;8.00;;;2.60;97.90;;;;;;5050346;28;20040;-48
2021/01/03 03:49:37;;;;;;;13.18;8.80;;;2.60;97.70;;;;;;5050210;28;20044;-47
2021/01/03 03:52:05;;;;;;;13.48;8.82;;;2.60;97.80;;;;;;5050193;28;20040;-51
2021/01/03 03:54:31;;;;;;;11.82;9.45;;;2.50;97.90;;;;;;5050145;28;20032;-51
2021/01/03 03:56:59;;;;;;;11.60;8.10;;;2.50;97.90;;;;;;5050153;28;20492;-49
2021/01/03 03:59:25;;;;;;;12.32;8.65;;;2.60;97.80;;;;;;5050188;28;20070;-51
2021/01/03 04:01:52;;;;;;;10.43;8.20;;;2.60;97.90;;;;;;5050104;28;20028;-48
2021/01/03 04:04:18;;;;;;;11.35;8.27;;;2.60;98.00;;;;;;5048618;28;20067;-51
2021/01/03 04:06:44;;;;;;;10.80;8.50;;;2.60;98.10;;;;;;5050124;28;20160;-51
2021/01/03 04:09:11;;;;;;;12.93;9.13;;;2.60;97.90;;;;;;5049913;28;20527;-48
2021/01/03 04:11:41;;;;;;;12.00;8.95;;;2.70;98.00;;;;;;5050189;28;20098;-50
2021/01/03 04:14:07;;;;;;;11.13;8.18;;;2.70;98.00;;;;;;5049746;28;20040;-51
2021/01/03 04:16:33;;;;;;;11.75;8.85;;;2.70;97.90;;;;;;5049961;28;20025;-48
2021/01/03 04:18:59;;;;;;;14.73;9.15;;;2.80;97.80;;;;;;5050024;28;20459;-52
2021/01/03 04:21:24;;;;;;;10.70;8.93;;;2.80;97.70;;;;;;5050042;28;20018;-53
2021/01/03 04:23:50;;;;;;;10.68;8.48;;;2.90;97.80;;;;;;5049708;28;20057;-48
2021/01/03 04:26:22;;;;;;;13.93;9.25;;;3.00;97.60;;;;;;5049940;28;20036;-49
2021/01/03 04:28:48;;;;;;;12.27;9.32;;;3.00;97.50;;;;;;5048593;28;20492;-48
2021/01/03 04:31:20;;;;;;;11.52;8.77;;;2.90;97.50;;;;;;5049905;28;20061;-51
2021/01/03 04:33:46;;;;;;;12.60;9.90;;;2.90;97.80;;;;;;5049858;28;20036;-50
2021/01/03 04:36:16;;;;;;;14.38;9.95;;;2.90;97.80;;;;;;5050032;28;20568;-48
2021/01/03 04:38:41;;;;;;;16.95;10.18;;;2.90;97.80;;;;;;5049932;28;20047;-50
2021/01/03 04:41:18;;;;;;;13.43;9.52;;;2.80;97.90;;;;;;5052864;28;20021;-52
2021/01/03 04:43:45;;;;;;;13.07;8.95;;;2.80;98.00;;;;;;5053264;28;20368;-50
2021/01/03 04:46:18;;;;;;;15.98;10.02;;;2.80;98.00;;;;;;5053525;28;20032;-49
2021/01/03 04:48:46;;;;;;;13.75;9.82;;;2.80;98.00;;;;;;5053471;28;20037;-52
2021/01/03 04:51:23;;;;;;;14.57;10.52;;;2.70;98.00;;;;;;5053292;28;20021;-50
2021/01/03 04:54:08;;;;;;;15.57;10.00;;;2.70;97.90;;;;;;5053081;28;20044;-49
2021/01/03 04:56:40;;;;;;;15.75;10.60;;;2.70;97.90;;;;;;5052002;28;20021;-50
2021/01/03 04:59:15;;;;;;;15.10;11.00;;;2.80;97.90;;;;;;5053437;28;20478;-52
2021/01/03 05:02:18;;;;;;;13.77;9.77;;;2.90;97.70;;;;;;5058709;28;20017;-50
2021/01/03 05:05:19;;;;;;;12.98;9.77;;;3.00;97.40;;;;;;5053044;28;20526;-50
2021/01/03 05:07:57;;;;;;;15.02;10.60;;;3.00;97.40;;;;;;5053643;28;20025;-48
2021/01/03 05:10:26;;;;;;;13.27;10.30;;;3.10;97.30;;;;;;5051630;28;20025;-48
2021/01/03 05:13:36;;;;;;;13.27;10.38;;;3.10;97.40;;;;;;5052546;28;20021;-54
2021/01/03 05:16:01;;;;;;;13.77;10.50;;;3.20;97.10;;;;;;5035626;28;20107;-48
2021/01/03 05:18:27;;;;;;;14.77;10.27;;;3.20;97.20;;;;;;5053239;28;20025;-48
2021/01/03 05:20:57;;;;;;;13.15;10.45;;;3.30;97.20;;;;;;5053188;28;20045;-48
2021/01/03 05:23:26;;;;;;;15.45;11.82;;;3.30;97.10;;;;;;5053040;28;20040;-50
2021/01/03 05:25:52;;;;;;;12.98;10.15;;;3.40;97.00;;;;;;5053155;28;20390;-50
2021/01/03 05:28:25;;;;;;;13.40;10.57;;;3.40;97.00;;;;;;5052970;28;20506;-49
2021/01/03 05:30:51;;;;;;;13.10;10.68;;;3.40;97.20;;;;;;5052964;28;20039;-49
2021/01/03 05:33:28;;;;;;;14.30;11.23;;;3.50;97.20;;;;;;5051371;28;20025;-49
2021/01/03 05:35:55;;;;;;;13.48;10.70;;;3.50;97.20;;;;;;5052534;28;20403;-53
2021/01/03 05:38:53;;;;;;;14.50;11.25;;;3.50;97.30;;;;;;5077461;23;20052;-46
2021/01/03 05:41:31;;;;;;;16.98;11.50;;;3.40;97.50;;;;;;4995891;28;20041;-49
2021/01/03 05:44:10;;;;;;;12.60;9.27;;;3.50;97.20;;;;;;5051495;28;20491;-47
2021/01/03 05:46:45;;;;;;;13.73;9.95;;;3.50;96.90;;;;;;5052222;28;20495;-46
2021/01/03 05:49:14;;;;;;;13.10;9.65;;;3.50;97.10;;;;;;5052233;28;20051;-50
2021/01/03 05:51:46;;;;;;;12.45;9.70;;;3.40;96.90;;;;;;5052493;28;20090;-45
2021/01/03 05:54:18;;;;;;;13.15;11.02;;;3.40;97.30;;;;;;5051433;28;20032;-46
2021/01/03 05:56:44;;;;;;;21.85;12.85;;;3.30;97.30;;;;;;5033934;28;20021;-47
2021/01/03 05:59:27;;;;;;;13.93;10.40;;;3.40;97.50;;;;;;5052016;28;20021;-45
2021/01/03 06:02:10;;;;;;;12.52;9.85;;;3.40;97.50;;;;;;5051932;28;20029;-48
2021/01/03 06:04:37;;;;;;;15.02;11.38;;;3.30;97.60;;;;;;5051419;28;20032;-47
2021/01/03 06:07:25;;;;;;;12.73;10.23;;;3.30;97.60;;;;;;5051733;28;20025;-49
2021/01/03 06:09:50;;;;;;;11.80;10.30;;;3.40;97.60;;;;;;5051717;28;20017;-46
2021/01/03 06:12:28;;;;;;;13.25;9.90;;;3.40;97.60;;;;;;5051599;28;20033;-46
2021/01/03 06:14:57;;;;;;;17.15;11.00;;;3.40;97.50;;;;;;5051699;28;20029;-46
2021/01/03 06:17:38;;;;;;;14.43;11.35;;;3.40;97.50;;;;;;5051304;28;20033;-52
2021/01/03 06:20:15;;;;;;;16.50;10.60;;;3.50;97.70;;;;;;5033893;28;20024;-46
2021/01/03 06:23:07;;;;;;;14.73;10.93;;;3.50;97.60;;;;;;5050816;28;20111;-44
2021/01/03 06:25:56;;;;;;;13.77;10.43;;;3.50;97.70;;;;;;5051297;28;20024;-45
2021/01/03 06:28:22;;;;;;;13.82;11.02;;;3.40;97.60;;;;;;5051479;28;20470;-46
2021/01/03 06:31:11;;;;;;;16.05;10.98;;;3.50;97.90;;;;;;5033377;28;20032;-45
2021/01/03 06:33:45;;;;;;;14.68;10.85;;;3.50;97.70;;;;;;5050828;28;20071;-50
2021/01/03 06:36:18;;;;;;;15.75;11.07;;;3.60;97.70;;;;;;5050766;28;20082;-51
2021/01/03 06:39:22;;;;;;;18.67;11.90;;;3.60;97.70;;;;;;5050889;28;20029;-47
2021/01/03 06:42:00;;;;;;;13.98;11.07;;;3.60;97.40;;;;;;5016276;28;20438;-47
2021/01/03 06:44:59;;;;;;;15.95;12.35;;;3.60;97.30;;;;;;5050479;28;20032;-47
2021/01/03 06:48:14;;;;;;;15.82;11.02;;;3.60;97.50;;;;;;5050754;28;20273;-46
2021/01/03 06:50:45;;;;;;;13.30;10.73;;;3.40;97.90;;;;;;5050788;28;20028;-49
2021/01/03 06:53:48;;;;;;;14.30;10.30;;;3.30;98.30;;;;;;5050377;28;20021;-48
2021/01/03 06:56:42;;;;;;;12.32;8.65;;;3.30;98.20;;;;;;5032841;28;20434;-48
2021/01/03 06:59:13;;;;;;;13.32;9.40;;;3.10;98.30;;;;;;5050514;28;20029;-45
2021/01/03 07:01:40;;;;;;;11.65;9.15;;;3.10;98.40;;;;;;5032588;28;20053;-46
2021/01/03 07:04:15;;;;;;;12.10;8.25;;;3.10;98.60;;;;;;5049505;28;20025;-48
2021/01/03 07:06:45;;;;;;;12.45;8.85;;;3.00;98.70;;;;;;5050611;28;20033;-49
2021/01/03 07:09:13;;;;;;;14.02;9.35;;;2.90;98.90;;;;;;5049492;28;20384;-48
2021/01/03 07:11:44;;;;;;;16.48;10.48;;;3.00;99.00;;;;;;5050439;28;20488;-46
2021/01/03 07:14:35;;;;;;;14.55;9.82;;;3.00;99.10;;;;;;5032048;28;20048;-45
2021/01/03 07:17:12;;;;;;;14.55;9.90;;;3.10;99.00;;;;;;5050344;28;20070;-50
2021/01/03 07:20:01;;;;;;;15.50;9.57;;;3.10;99.00;;;;;;5032568;28;20032;-48
2021/01/03 07:22:39;;;;;;;14.63;9.70;;;3.10;99.10;;;;;;5050293;28;20079;-41
2021/01/03 07:25:15;;;;;;;13.50;9.30;;;3.20;99.20;;;;;;5050356;28;20112;-45
2021/01/03 07:27:44;;;;;;;15.77;9.25;;;3.10;99.20;;;;;;5050423;28;20024;-46
2021/01/03 07:30:09;;;;;;;12.43;8.93;;;3.10;99.40;;;;;;5050374;28;20033;-48
2021/01/03 07:32:38;;;;;;;14.65;10.35;;;3.10;99.40;;;;;;5049484;28;20365;-48
2021/01/03 07:35:07;;;;;;;11.85;9.30;;;3.10;99.50;;;;;;5050064;28;20021;-47
2021/01/03 07:37:34;;;;;;;13.45;10.07;;;3.10;99.60;;;;;;5050007;28;20303;-47
2021/01/03 07:40:00;;;;;;;16.05;10.13;;;3.10;99.60;;;;;;5050119;28;20500;-48
2021/01/03 07:42:31;;;;;;;12.55;9.02;;;3.20;99.70;;;;;;5049177;28;20100;-48
2021/01/03 07:44:58;;;;;;;14.40;9.93;;;3.20;99.70;;;;;;5050270;28;20507;-47
2021/01/03 07:47:45;;;;;;;17.45;10.57;;;3.10;99.80;;;;;;5049955;28;20037;-46
2021/01/03 07:50:22;;;;;;;12.85;9.63;;;3.10;99.80;;;;;;5032234;28;20029;-52
2021/01/03 07:52:53;;;;;;;14.15;9.73;;;3.20;99.90;;;;;;5049278;28;20040;-48
2021/01/03 07:55:21;;;;;;;16.50;10.95;;;3.10;99.90;;;;;;5049805;28;20442;-47
2021/01/03 07:57:58;;;;;;;14.15;9.15;;;3.10;99.90;;;;;;5049843;28;20078;-46
2021/01/03 08:00:26;;;;;;;15.90;10.48;;;3.10;99.90;;;;;;5049996;28;20052;-51
2021/01/03 08:02:57;;;;;;;12.30;9.80;;;3.10;99.90;;;;;;5049457;28;20055;-48
2021/01/03 08:05:24;;;;;;;12.95;9.93;;;3.10;99.90;;;;;;5050107;28;20048;-49
2021/01/03 08:07:50;;;;;;;12.63;9.10;;;3.20;99.90;;;;;;5050050;28;20037;-49
2021/01/03 08:10:17;;;;;;;14.43;10.40;;;3.20;99.90;;;;;;5050201;28;20487;-48
2021/01/03 08:12:48;;;;;;;13.82;9.30;;;3.20;99.90;;;;;;5049056;28;20391;-51
2021/01/03 08:15:17;;;;;;;13.57;9.95;;;3.10;99.90;;;;;;5051508;28;20013;-47
2021/01/03 08:17:44;;;;;;;17.08;10.90;;;3.20;99.90;;;;;;5053707;28;20021;-49
2021/01/03 08:20:20;;;;;;;12.70;9.48;;;3.20;99.90;;;;;;5053830;28;20100;-46
2021/01/03 08:22:46;;;;;;;14.68;10.27;;;3.30;99.90;;;;;;5053189;28;20036;-49
2021/01/03 08:25:25;;;;;;;14.45;9.63;;;3.20;99.90;;;;;;5053970;28;20039;-51
2021/01/03 08:28:00;;;;;;;15.57;10.73;;;3.30;99.90;;;;;;5053557;28;20017;-48
2021/01/03 08:30:25;;;;;;;15.20;9.75;;;3.20;99.90;;;;;;5053484;28;20483;-47
2021/01/03 08:32:52;;;;;;;15.10;10.07;;;3.30;99.90;;;;;;5052790;28;20036;-48
2021/01/03 08:35:31;;;;;;;15.05;9.75;;;3.30;99.90;;;;;;5053545;28;20118;-47
2021/01/03 08:37:57;;;;;;;18.90;11.77;;;3.40;99.90;;;;;;5053280;28;20623;-47
2021/01/03 08:40:36;;;;;;;15.43;11.52;;;3.40;99.90;;;;;;5053442;28;20040;-48
2021/01/03 08:43:10;;;;;;;18.73;11.35;;;3.40;99.90;;;;;;5052633;28;20103;-48
2021/01/03 08:45:39;;;;;;;12.75;10.25;;;3.50;99.90;;;;;;5053422;28;20447;-47
2021/01/03 08:48:07;;;;;;;16.08;10.57;;;3.50;99.80;;;;;;5053257;28;20064;-50
2021/01/03 08:50:35;;;;;;;16.45;11.45;;;3.60;99.70;;;;;;5053229;28;20502;-47
2021/01/03 08:53:15;;;;;;;13.93;10.85;;;3.60;99.70;;;;;;5052230;28;20040;-50
2021/01/03 08:55:41;;;;;;;15.80;10.95;;;3.60;99.80;;;;;;5035496;28;20555;-49
2021/01/03 08:58:12;;;;;;;17.42;11.32;;;3.70;99.80;;;;;;5052964;28;20120;-46
2021/01/03 09:00:41;;;;;;;14.10;10.55;;;3.60;99.80;;;;;;5053774;28;20086;-48
2021/01/03 09:03:15;;;;;;;14.10;9.98;;;3.60;99.80;;;;;;5052304;28;20416;-45
2021/01/03 09:05:43;;;;;;;15.35;10.98;;;3.60;99.90;;;;;;5053128;28;20029;-49
2021/01/03 09:08:14;;;;;;;15.70;10.70;;;3.60;99.90;;;;;;5052970;28;20410;-46
2021/01/03 09:10:42;;;;;;;16.77;10.23;;;3.60;99.90;;;;;;5052515;28;20025;-49
2021/01/03 09:13:28;;;;;;;16.60;11.10;;;3.60;99.90;;;;;;5052191;28;20071;-47
2021/01/03 09:16:12;;;;;;;16.83;11.48;;;3.60;99.90;;;;;;5053048;28;20518;-49
2021/01/03 09:19:03;;;;;;;14.75;10.35;;;3.70;99.90;;;;;;5053621;28;20077;-45
2021/01/03 09:21:29;;;;;;;12.65;10.27;;;3.60;99.90;;;;;;5042032;28;20033;-45
2021/01/03 09:24:04;;;;;;;17.15;10.82;;;3.60;99.90;;;;;;5052710;28;20075;-45
2021/01/03 09:26:35;;;;;;;17.13;11.52;;;3.60;99.90;;;;;;5052404;28;20039;-47
2021/01/03 09:29:11;;;;;;;15.80;11.38;;;3.70;99.90;;;;;;5034587;28;20025;-46
2021/01/03 09:31:39;;;;;;;18.15;11.70;;;3.60;99.90;;;;;;5052450;28;20033;-47
2021/01/03 09:34:17;;;;;;;19.25;12.90;;;3.80;99.90;;;;;;5051866;28;20415;-49
2021/01/03 09:36:46;;;;;;;15.65;11.05;;;3.70;99.90;;;;;;5052248;28;20399;-46
2021/01/03 09:39:31;;;;;;;11.60;9.65;;;3.60;99.90;;;;;;5052206;28;20021;-46
2021/01/03 09:42:37;;;;;;;14.00;11.02;;;3.60;99.90;;;;;;5052494;28;20040;-47
2021/01/03 09:45:08;;;;;;;17.83;11.90;;;3.70;99.90;;;;;;5052602;28;20025;-49
2021/01/03 09:47:39;;;;;;;20.42;11.43;;;3.70;99.90;;;;;;5052538;28;20036;-47
2021/01/03 09:50:24;;;;;;;20.15;11.85;;;3.70;99.90;;;;;;5051979;28;20127;-50
2021/01/03 09:52:54;;;;;;;21.00;12.15;;;3.80;99.90;;;;;;5051404;28;20489;-45
2021/01/03 09:55:25;;;;;;;16.45;11.40;;;3.80;99.90;;;;;;5052254;28;20392;-46
2021/01/03 09:57:54;;;;;;;14.75;11.60;;;3.70;99.90;;;;;;5051859;28;20037;-45
2021/01/03 10:00:44;;;;;;;16.83;11.30;;;3.70;99.90;;;;;;5051856;28;20037;-46
2021/01/03 10:03:17;;;;;;;17.15;12.05;;;3.70;99.90;;;;;;5050921;28;20074;-46
2021/01/03 10:05:44;;;;;;;20.70;11.90;;;3.70;99.90;;;;;;5051682;28;20094;-51
2021/01/03 10:08:20;;;;;;;18.00;12.18;;;3.70;99.90;;;;;;5033768;28;20032;-48
2021/01/03 10:10:52;;;;;;;16.60;13.05;;;3.70;99.90;;;;;;5049855;28;20024;-48
2021/01/03 10:13:19;;;;;;;19.40;11.93;;;3.70;99.90;;;;;;5050815;28;20032;-46
2021/01/03 10:15:49;;;;;;;16.25;11.80;;;3.70;99.90;;;;;;5051411;28;20108;-46
2021/01/03 10:18:29;;;;;;;16.67;11.32;;;3.70;99.90;;;;;;5051833;28;20044;-50
2021/01/03 10:20:55;;;;;;;17.80;11.30;;;3.60;99.90;;;;;;5052112;28;20027;-49
2021/01/03 10:23:41;;;;;;;17.65;12.73;;;3.70;99.90;;;;;;5050527;28;20117;-48
2021/01/03 10:26:34;;;;;;;18.30;12.18;;;3.70;99.90;;;;;;5051950;28;20033;-48
2021/01/03 10:29:00;;;;;;;18.05;12.27;;;3.70;99.90;;;;;;5051271;28;20518;-47
2021/01/03 10:31:54;;;;;;;19.05;12.55;;;3.80;99.90;;;;;;5051208;28;20049;-49
2021/01/03 10:34:21;;;;;;;17.88;12.25;;;3.70;99.90;;;;;;5050455;28;20021;-47
2021/01/03 10:36:47;;;;;;;14.63;11.40;;;3.70;99.90;;;;;;5051346;28;20120;-47
2021/01/03 10:39:14;;;;;;;16.33;12.00;;;3.80;99.90;;;;;;5051246;28;20142;-44
2021/01/03 10:41:40;;;;;;;14.52;10.57;;;3.80;99.90;;;;;;5051052;28;20063;-49
2021/01/03 10:44:08;;;;;;;14.63;10.45;;;3.90;99.90;;;;;;5050313;28;20056;-48
2021/01/03 10:46:33;;;;;;;18.35;11.73;;;3.90;99.90;;;;;;5050914;28;20025;-49
2021/01/03 10:48:59;;;;;;;15.57;11.70;;;3.90;99.90;;;;;;5051016;28;20131;-49
2021/01/03 10:51:35;;;;;;;18.70;10.60;;;3.90;99.90;;;;;;5051313;28;20535;-52
2021/01/03 10:54:02;;;;;;;15.20;10.68;;;3.80;99.90;;;;;;5050079;28;20060;-48
2021/01/03 10:56:28;;;;;;;16.40;11.13;;;3.80;99.90;;;;;;5032881;28;20021;-49
2021/01/03 10:58:54;;;;;;;15.70;11.50;;;3.90;99.90;;;;;;5051136;28;20132;-50
2021/01/03 11:01:20;;;;;;;14.73;10.52;;;4.00;99.90;;;;;;5050830;28;20402;-50
2021/01/03 11:03:46;;;;;;;17.70;11.02;;;3.90;99.90;;;;;;5049884;28;20033;-48
2021/01/03 11:06:12;;;;;;;16.17;10.85;;;4.00;99.90;;;;;;5050711;28;20100;-52
2021/01/03 11:08:38;;;;;;;17.38;11.80;;;4.00;99.90;;;;;;5050770;28;20498;-46
2021/01/03 11:11:05;;;;;;;16.25;11.15;;;4.10;99.90;;;;;;5048990;28;20032;-47
2021/01/03 11:13:31;;;;;;;12.98;10.25;;;4.20;99.90;;;;;;5049951;28;20036;-49
2021/01/03 11:15:57;;;;;;;14.18;9.77;;;4.20;99.90;;;;;;5050837;28;20025;-49
2021/01/03 11:18:23;;;;;;;12.80;9.88;;;4.20;99.70;;;;;;5051001;28;20052;-51
2021/01/03 11:20:49;;;;;;;16.48;10.70;;;4.20;99.90;;;;;;5050531;28;20037;-49
2021/01/03 11:23:14;;;;;;;14.38;9.40;;;4.10;99.90;;;;;;5049798;28;20361;-46
2021/01/03 11:25:40;;;;;;;11.48;8.68;;;4.10;99.90;;;;;;5050369;28;20096;-46
2021/01/03 11:28:06;;;;;;;11.73;9.40;;;4.00;99.90;;;;;;5050299;28;20025;-46
2021/01/03 11:30:31;;;;;;;16.20;10.57;;;3.90;99.90;;;;;;5050743;28;20021;-45
2021/01/03 11:32:57;;;;;;;14.77;10.18;;;3.90;99.90;;;;;;5049688;28;20048;-49
2021/01/03 11:35:22;;;;;;;16.33;9.55;;;3.90;99.90;;;;;;5050168;28;20487;-45
2021/01/03 11:37:48;;;;;;;15.70;9.40;;;4.00;99.90;;;;;;5052176;28;20040;-47
2021/01/03 11:40:15;;;;;;;13.23;10.43;;;4.00;99.90;;;;;;5050515;28;20021;-57
2021/01/03 11:42:41;;;;;;;12.73;9.18;;;4.00;99.90;;;;;;5049110;28;20117;-46
2021/01/03 11:45:10;;;;;;;13.27;10.23;;;4.00;99.90;;;;;;5050352;28;20539;-47
2021/01/03 11:47:36;;;;;;;12.52;9.07;;;3.90;99.90;;;;;;5050184;28;20075;-46
2021/01/03 11:50:04;;;;;;;13.02;10.00;;;3.90;99.90;;;;;;5053703;28;20071;-48
2021/01/03 11:52:31;;;;;;;13.45;9.95;;;3.90;99.90;;;;;;5054138;28;20039;-47
2021/01/03 11:54:57;;;;;;;14.07;10.65;;;4.00;99.90;;;;;;5054036;28;20392;-48
2021/01/03 11:57:23;;;;;;;14.05;9.65;;;3.90;99.90;;;;;;5054084;28;20021;-49
2021/01/03 11:59:49;;;;;;;13.25;9.68;;;3.90;99.90;;;;;;5054366;28;20021;-48
2021/01/03 12:02:15;;;;;;;11.27;9.55;;;3.90;99.90;;;;;;5054248;28;20120;-47
2021/01/03 12:04:41;;;;;;;14.27;9.85;;;3.90;99.90;;;;;;5053363;28;20032;-49
2021/01/03 12:07:09;;;;;;;14.05;10.18;;;3.90;99.90;;;;;;5054034;28;20025;-47
2021/01/03 12:09:36;;;;;;;14.13;9.70;;;3.80;99.90;;;;;;5054159;28;20040;-50
2021/01/03 12:12:05;;;;;;;12.82;9.63;;;3.80;99.90;;;;;;5054587;28;20542;-44
2021/01/03 12:14:30;;;;;;;13.13;10.23;;;3.80;99.90;;;;;;5053288;28;20021;-47
2021/01/03 12:16:58;;;;;;;12.93;9.73;;;3.90;99.90;;;;;;5053686;28;20491;-47
2021/01/03 12:19:24;;;;;;;11.63;9.02;;;3.90;99.90;;;;;;5054477;28;20079;-47
2021/01/03 12:21:50;;;;;;;14.70;10.05;;;3.90;99.90;;;;;;5054617;28;20387;-48
2021/01/03 12:24:17;;;;;;;13.70;9.60;;;3.90;99.90;;;;;;5053232;28;20036;-48
2021/01/03 12:26:43;;;;;;;13.38;10.02;;;3.90;99.90;;;;;;5053483;28;20317;-46
2021/01/03 12:29:11;;;;;;;14.05;9.55;;;3.70;99.90;;;;;;5053492;28;20029;-47
2021/01/03 12:31:43;;;;;;;15.25;10.18;;;3.80;99.90;;;;;;5053855;28;20032;-48
2021/01/03 12:34:10;;;;;;;13.35;9.60;;;3.80;99.90;;;;;;5053603;28;20686;-53
2021/01/03 12:36:36;;;;;;;13.20;9.73;;;3.80;99.90;;;;;;5035258;28;20029;-47
2021/01/03 12:39:03;;;;;;;14.27;9.27;;;3.70;99.90;;;;;;5053382;28;20552;-48
2021/01/03 12:41:28;;;;;;;13.32;9.30;;;3.70;99.90;;;;;;5053826;28;20058;-48
2021/01/03 12:43:54;;;;;;;11.30;8.93;;;3.60;99.90;;;;;;5053262;28;20029;-46
2021/01/03 12:46:31;;;;;;;15.13;10.50;;;3.60;99.90;;;;;;5035434;28;20033;-46
2021/01/03 12:48:57;;;;;;;14.82;9.85;;;3.70;99.90;;;;;;5053136;28;20024;-46
2021/01/03 12:51:23;;;;;;;11.65;9.10;;;3.70;99.90;;;;;;5053212;28;20616;-48
2021/01/03 12:53:48;;;;;;;13.90;9.15;;;3.60;99.90;;;;;;5052469;28;20036;-50
2021/01/03 12:56:14;;;;;;;14.60;9.73;;;3.60;99.90;;;;;;5053130;28;20025;-48
2021/01/03 12:58:40;;;;;;;12.05;9.73;;;3.50;99.90;;;;;;5053080;28;20025;-49
2021/01/03 13:01:06;;;;;;;11.45;9.13;;;3.40;99.90;;;;;;5034498;28;20053;-49
2021/01/03 13:03:31;;;;;;;14.10;9.48;;;3.40;99.90;;;;;;5050774;28;20134;-51